Columbia — WDD6400 — position and weather

sailwx.info

Track history (hours):
 
Tides and Currents Weather Stations Pressure Air Temp Water Temp Dewpoint Dewpoint Depression Visibility Wind Speed Wind Dir Waves Ship Positions

Columbia

Owner: OSG Ship Management Inc., Tampa, FL. More information available from US FCC via Universal Licensing System and Coast Guard Vessel Documentation Center.

Last reported at 2016-Aug-24 19:30 UTC. Time now 2016-Aug-24 19:47 UTC.
Position N 29°38' W 093°18'.

Length 194 m; draft 9.3 m.

Type: Towing. MMSI: 367172440.

Date/timePositionNaut miles runAvg speedWind from/ knotsBaromVisibWave heightAir tempDewpointWater temp
2016-Aug-24 19:30N 29°38' W 093°18'0 0.0
2016-Aug-24 17:18N 29°38' W 093°18'0 0.0
2016-Aug-24 14:15N 29°38' W 093°18'0 0.0
2016-Aug-24 11:30N 29°38' W 093°18'0 0.0
2016-Aug-23 21:30N 29°38' W 093°18'  
2016-Aug-20 18:10N 27°45' W 082°31'5 8.7
2016-Aug-20 17:33N 27°49' W 082°27'7 7.0
2016-Aug-20 16:33N 27°56' W 082°27'2 1.8
2016-Aug-20 15:33N 27°54' W 082°26'1 0.9
2016-Aug-20 14:32N 27°55' W 082°26'0 0.0
2016-Aug-20 13:26N 27°55' W 082°26'0 0.0
2016-Aug-20 12:32N 27°55' W 082°26'0 0.0
2016-Aug-20 11:32N 27°55' W 082°26'0 0.0
2016-Aug-20 10:32N 27°55' W 082°26'0 0.0
2016-Aug-20 09:32N 27°55' W 082°26'0 0.0
2016-Aug-20 08:32N 27°55' W 082°26'0 0.0
2016-Aug-20 07:32N 27°55' W 082°26'0 0.0
2016-Aug-20 06:31N 27°55' W 082°26'0 0.0
2016-Aug-20 05:31N 27°55' W 082°26'0 0.0
2016-Aug-20 04:31N 27°55' W 082°26'0 0.0
2016-Aug-20 03:31N 27°55' W 082°26'0 0.0
2016-Aug-20 02:31N 27°55' W 082°26'0 0.0
2016-Aug-20 01:31N 27°55' W 082°26'0 0.0
2016-Aug-20 00:31N 27°55' W 082°26'0 0.0
2016-Aug-19 23:28N 27°55' W 082°26'0 0.0
2016-Aug-19 22:31N 27°55' W 082°26'0 0.0
2016-Aug-19 21:31N 27°55' W 082°26'0 0.0
2016-Aug-19 20:31N 27°55' W 082°26'0 0.0
2016-Aug-19 19:31N 27°55' W 082°26'0 0.0
2016-Aug-19 18:31N 27°55' W 082°26'0 0.0
2016-Aug-19 17:31N 27°55' W 082°26'0 0.0
2016-Aug-19 16:31N 27°55' W 082°26'0 0.0
2016-Aug-19 15:31N 27°55' W 082°26'0 0.0
2016-Aug-19 14:31N 27°55' W 082°26'0 0.0
2016-Aug-19 13:31N 27°55' W 082°26'  
2016-Aug-15 23:32N 29°37' W 093°19'8 8.6
2016-Aug-15 22:33N 29°46' W 093°21'9 8.9
2016-Aug-15 21:33N 29°55' W 093°20'8 7.9
2016-Aug-15 20:33N 30°03' W 093°20'7 6.8
2016-Aug-15 19:33N 30°09' W 093°20'1 1.2
2016-Aug-15 18:33N 30°11' W 093°19'0 0.0
2016-Aug-15 17:33N 30°11' W 093°19'0 0.0
2016-Aug-15 16:33N 30°11' W 093°19'0 0.0
2016-Aug-15 15:33N 30°11' W 093°19'0 0.0
2016-Aug-15 14:33N 30°11' W 093°19'0 0.0
2016-Aug-15 13:30N 30°11' W 093°19'0 0.0
2016-Aug-15 12:33N 30°11' W 093°19'0 0.0
2016-Aug-15 11:24N 30°11' W 093°19'0 0.0
2016-Aug-15 10:33N 30°11' W 093°19'0 0.0
2016-Aug-15 09:33N 30°11' W 093°19'0 0.0
2016-Aug-15 08:30N 30°11' W 093°19'0 0.0
2016-Aug-15 07:33N 30°11' W 093°19'0 0.0
2016-Aug-15 06:33N 30°11' W 093°19'0 0.0
2016-Aug-15 04:33N 30°11' W 093°19'0 0.0
2016-Aug-15 03:29N 30°11' W 093°19'0 0.0
2016-Aug-15 02:32N 30°11' W 093°19'0 0.0
2016-Aug-15 01:26N 30°11' W 093°19'0 0.0
2016-Aug-15 00:26N 30°11' W 093°19'0 0.0
2016-Aug-14 23:29N 30°11' W 093°19'0 0.0
2016-Aug-14 22:32N 30°11' W 093°19'0 0.0
2016-Aug-14 21:32N 30°11' W 093°19'0 0.0
2016-Aug-14 20:32N 30°11' W 093°19'0 0.0
2016-Aug-14 19:32N 30°11' W 093°19'0 0.0
2016-Aug-14 18:32N 30°11' W 093°19'0 0.0
2016-Aug-14 17:32N 30°11' W 093°19'  
Track history (hours):
 
Tides and Currents Weather Stations Pressure Air Temp Water Temp Dewpoint Dewpoint Depression Visibility Wind Speed Wind Dir Waves Ship Positions

Columbia

Owner: OSG Ship Management Inc., Tampa, FL. More information available from US FCC via Universal Licensing System and Coast Guard Vessel Documentation Center.

Last reported at 2016-Aug-24 19:30 UTC. Time now 2016-Aug-24 19:47 UTC.
Position N 29°38' W 093°18'.

Length 194 m; draft 9.3 m.

Type: Towing. MMSI: 367172440.

Date/timePositionNaut miles runAvg speedWind from/ knotsBaromVisibWave heightAir tempDewpointWater temp
2016-Aug-24 19:30N 29°38' W 093°18'0 0.0
2016-Aug-24 17:18N 29°38' W 093°18'0 0.0
2016-Aug-24 14:15N 29°38' W 093°18'0 0.0
2016-Aug-24 11:30N 29°38' W 093°18'0 0.0
2016-Aug-23 21:30N 29°38' W 093°18'  
2016-Aug-20 18:10N 27°45' W 082°31'5 8.7
2016-Aug-20 17:33N 27°49' W 082°27'7 7.0
2016-Aug-20 16:33N 27°56' W 082°27'2 1.8
2016-Aug-20 15:33N 27°54' W 082°26'1 0.9
2016-Aug-20 14:32N 27°55' W 082°26'0 0.0
2016-Aug-20 13:26N 27°55' W 082°26'0 0.0
2016-Aug-20 12:32N 27°55' W 082°26'0 0.0
2016-Aug-20 11:32N 27°55' W 082°26'0 0.0
2016-Aug-20 10:32N 27°55' W 082°26'0 0.0
2016-Aug-20 09:32N 27°55' W 082°26'0 0.0
2016-Aug-20 08:32N 27°55' W 082°26'0 0.0
2016-Aug-20 07:32N 27°55' W 082°26'0 0.0
2016-Aug-20 06:31N 27°55' W 082°26'0 0.0
2016-Aug-20 05:31N 27°55' W 082°26'0 0.0
2016-Aug-20 04:31N 27°55' W 082°26'0 0.0
2016-Aug-20 03:31N 27°55' W 082°26'0 0.0
2016-Aug-20 02:31N 27°55' W 082°26'0 0.0
2016-Aug-20 01:31N 27°55' W 082°26'0 0.0
2016-Aug-20 00:31N 27°55' W 082°26'0 0.0
2016-Aug-19 23:28N 27°55' W 082°26'0 0.0
2016-Aug-19 22:31N 27°55' W 082°26'0 0.0
2016-Aug-19 21:31N 27°55' W 082°26'0 0.0
2016-Aug-19 20:31N 27°55' W 082°26'0 0.0
2016-Aug-19 19:31N 27°55' W 082°26'0 0.0
2016-Aug-19 18:31N 27°55' W 082°26'0 0.0
2016-Aug-19 17:31N 27°55' W 082°26'0 0.0
2016-Aug-19 16:31N 27°55' W 082°26'0 0.0
2016-Aug-19 15:31N 27°55' W 082°26'0 0.0
2016-Aug-19 14:31N 27°55' W 082°26'0 0.0
2016-Aug-19 13:31N 27°55' W 082°26'  
2016-Aug-15 23:32N 29°37' W 093°19'8 8.6
2016-Aug-15 22:33N 29°46' W 093°21'9 8.9
2016-Aug-15 21:33N 29°55' W 093°20'8 7.9
2016-Aug-15 20:33N 30°03' W 093°20'7 6.8
2016-Aug-15 19:33N 30°09' W 093°20'1 1.2
2016-Aug-15 18:33N 30°11' W 093°19'0 0.0
2016-Aug-15 17:33N 30°11' W 093°19'0 0.0
2016-Aug-15 16:33N 30°11' W 093°19'0 0.0
2016-Aug-15 15:33N 30°11' W 093°19'0 0.0
2016-Aug-15 14:33N 30°11' W 093°19'0 0.0
2016-Aug-15 13:30N 30°11' W 093°19'0 0.0
2016-Aug-15 12:33N 30°11' W 093°19'0 0.0
2016-Aug-15 11:24N 30°11' W 093°19'0 0.0
2016-Aug-15 10:33N 30°11' W 093°19'0 0.0
2016-Aug-15 09:33N 30°11' W 093°19'0 0.0
2016-Aug-15 08:30N 30°11' W 093°19'0 0.0
2016-Aug-15 07:33N 30°11' W 093°19'0 0.0
2016-Aug-15 06:33N 30°11' W 093°19'0 0.0
2016-Aug-15 04:33N 30°11' W 093°19'0 0.0
2016-Aug-15 03:29N 30°11' W 093°19'0 0.0
2016-Aug-15 02:32N 30°11' W 093°19'0 0.0
2016-Aug-15 01:26N 30°11' W 093°19'0 0.0
2016-Aug-15 00:26N 30°11' W 093°19'0 0.0
2016-Aug-14 23:29N 30°11' W 093°19'0 0.0
2016-Aug-14 22:32N 30°11' W 093°19'0 0.0
2016-Aug-14 21:32N 30°11' W 093°19'0 0.0
2016-Aug-14 20:32N 30°11' W 093°19'0 0.0
2016-Aug-14 19:32N 30°11' W 093°19'0 0.0
2016-Aug-14 18:32N 30°11' W 093°19'0 0.0
2016-Aug-14 17:32N 30°11' W 093°19'  

Dump ship's entire track history